sensor_id;sensor_type;location;lat;lon;timestamp;P1;durP1;ratioP1;P2;durP2;ratioP2
3993;SDS011;2011;48.238;13.948;2022-08-03T00:01:04;7.40;;;3.83;;
3993;SDS011;2011;48.238;13.948;2022-08-03T00:03:32;14.00;;;4.10;;
3993;SDS011;2011;48.238;13.948;2022-08-03T00:05:59;6.70;;;3.60;;
3993;SDS011;2011;48.238;13.948;2022-08-03T00:08:26;4.87;;;3.43;;
3993;SDS011;2011;48.238;13.948;2022-08-03T00:10:53;10.10;;;3.33;;
3993;SDS011;2011;48.238;13.948;2022-08-03T00:13:21;7.20;;;3.80;;
3993;SDS011;2011;48.238;13.948;2022-08-03T00:15:49;9.77;;;4.10;;
3993;SDS011;2011;48.238;13.948;2022-08-03T00:18:16;8.23;;;3.90;;
3993;SDS011;2011;48.238;13.948;2022-08-03T00:20:43;7.60;;;3.63;;
3993;SDS011;2011;48.238;13.948;2022-08-03T00:23:10;13.83;;;4.20;;
3993;SDS011;2011;48.238;13.948;2022-08-03T00:25:37;15.13;;;3.70;;
3993;SDS011;2011;48.238;13.948;2022-08-03T00:28:04;7.03;;;3.20;;
3993;SDS011;2011;48.238;13.948;2022-08-03T00:30:33;6.93;;;3.87;;
3993;SDS011;2011;48.238;13.948;2022-08-03T00:33:00;7.50;;;4.17;;
3993;SDS011;2011;48.238;13.948;2022-08-03T00:35:29;12.37;;;4.20;;
3993;SDS011;2011;48.238;13.948;2022-08-03T00:37:56;6.50;;;4.37;;
3993;SDS011;2011;48.238;13.948;2022-08-03T00:40:23;7.33;;;4.20;;
3993;SDS011;2011;48.238;13.948;2022-08-03T00:42:51;5.93;;;3.90;;
3993;SDS011;2011;48.238;13.948;2022-08-03T00:45:21;7.73;;;3.43;;
3993;SDS011;2011;48.238;13.948;2022-08-03T00:47:51;8.30;;;4.07;;
3993;SDS011;2011;48.238;13.948;2022-08-03T00:50:20;7.80;;;3.50;;
3993;SDS011;2011;48.238;13.948;2022-08-03T00:52:49;9.97;;;3.70;;
3993;SDS011;2011;48.238;13.948;2022-08-03T00:55:18;7.70;;;3.43;;
3993;SDS011;2011;48.238;13.948;2022-08-03T00:57:45;8.60;;;3.30;;
3993;SDS011;2011;48.238;13.948;2022-08-03T01:00:13;9.00;;;4.17;;
3993;SDS011;2011;48.238;13.948;2022-08-03T01:02:42;13.03;;;4.33;;
3993;SDS011;2011;48.238;13.948;2022-08-03T01:05:11;17.00;;;4.67;;
3993;SDS011;2011;48.238;13.948;2022-08-03T01:07:41;7.00;;;3.67;;
3993;SDS011;2011;48.238;13.948;2022-08-03T01:10:20;9.57;;;3.93;;
3993;SDS011;2011;48.238;13.948;2022-08-03T01:12:54;8.63;;;4.20;;
3993;SDS011;2011;48.238;13.948;2022-08-03T01:15:27;10.23;;;4.33;;
3993;SDS011;2011;48.238;13.948;2022-08-03T01:17:59;7.90;;;3.70;;
3993;SDS011;2011;48.238;13.948;2022-08-03T01:20:33;10.40;;;4.30;;
3993;SDS011;2011;48.238;13.948;2022-08-03T01:23:12;7.57;;;3.90;;
3993;SDS011;2011;48.238;13.948;2022-08-03T01:26:12;7.73;;;4.60;;
3993;SDS011;2011;48.238;13.948;2022-08-03T01:28:56;6.80;;;4.50;;
3993;SDS011;2011;48.238;13.948;2022-08-03T01:31:35;8.77;;;4.83;;
3993;SDS011;2011;48.238;13.948;2022-08-03T01:34:05;11.87;;;5.00;;
3993;SDS011;2011;48.238;13.948;2022-08-03T01:36:37;11.77;;;4.23;;
3993;SDS011;2011;48.238;13.948;2022-08-03T01:39:08;7.80;;;3.97;;
3993;SDS011;2011;48.238;13.948;2022-08-03T01:41:39;8.33;;;4.30;;
3993;SDS011;2011;48.238;13.948;2022-08-03T01:44:11;14.63;;;4.90;;
3993;SDS011;2011;48.238;13.948;2022-08-03T01:46:43;10.63;;;4.83;;
3993;SDS011;2011;48.238;13.948;2022-08-03T01:49:13;6.10;;;4.33;;
3993;SDS011;2011;48.238;13.948;2022-08-03T01:51:41;14.77;;;4.13;;
3993;SDS011;2011;48.238;13.948;2022-08-03T01:54:10;10.77;;;4.07;;
3993;SDS011;2011;48.238;13.948;2022-08-03T01:56:40;9.30;;;3.90;;
3993;SDS011;2011;48.238;13.948;2022-08-03T01:59:09;7.10;;;4.20;;
3993;SDS011;2011;48.238;13.948;2022-08-03T02:01:41;6.57;;;4.10;;
3993;SDS011;2011;48.238;13.948;2022-08-03T02:04:09;7.70;;;4.63;;
3993;SDS011;2011;48.238;13.948;2022-08-03T02:06:38;14.73;;;6.20;;
3993;SDS011;2011;48.238;13.948;2022-08-03T02:09:05;10.00;;;4.10;;
3993;SDS011;2011;48.238;13.948;2022-08-03T02:11:33;10.17;;;3.80;;
3993;SDS011;2011;48.238;13.948;2022-08-03T02:14:02;8.33;;;3.83;;
3993;SDS011;2011;48.238;13.948;2022-08-03T02:16:31;11.27;;;3.83;;
3993;SDS011;2011;48.238;13.948;2022-08-03T02:19:03;13.60;;;5.00;;
3993;SDS011;2011;48.238;13.948;2022-08-03T02:21:35;9.13;;;4.47;;
3993;SDS011;2011;48.238;13.948;2022-08-03T02:24:03;7.60;;;3.90;;
3993;SDS011;2011;48.238;13.948;2022-08-03T02:26:32;10.10;;;5.00;;
3993;SDS011;2011;48.238;13.948;2022-08-03T02:29:02;11.50;;;4.20;;
3993;SDS011;2011;48.238;13.948;2022-08-03T02:31:35;6.97;;;4.80;;
3993;SDS011;2011;48.238;13.948;2022-08-03T02:34:05;8.73;;;4.07;;
3993;SDS011;2011;48.238;13.948;2022-08-03T02:36:37;8.30;;;3.83;;
3993;SDS011;2011;48.238;13.948;2022-08-03T02:39:06;9.70;;;3.67;;
3993;SDS011;2011;48.238;13.948;2022-08-03T02:41:37;9.70;;;4.43;;
3993;SDS011;2011;48.238;13.948;2022-08-03T02:44:09;17.47;;;5.20;;
3993;SDS011;2011;48.238;13.948;2022-08-03T02:46:42;9.50;;;5.60;;
3993;SDS011;2011;48.238;13.948;2022-08-03T02:49:12;10.10;;;4.97;;
3993;SDS011;2011;48.238;13.948;2022-08-03T02:51:43;14.80;;;5.60;;
3993;SDS011;2011;48.238;13.948;2022-08-03T02:54:13;7.00;;;5.17;;
3993;SDS011;2011;48.238;13.948;2022-08-03T02:56:44;7.00;;;4.37;;
3993;SDS011;2011;48.238;13.948;2022-08-03T02:59:13;9.63;;;5.00;;
3993;SDS011;2011;48.238;13.948;2022-08-03T03:01:43;11.83;;;5.43;;
3993;SDS011;2011;48.238;13.948;2022-08-03T03:04:13;9.83;;;4.90;;
3993;SDS011;2011;48.238;13.948;2022-08-03T03:06:41;10.50;;;5.27;;
3993;SDS011;2011;48.238;13.948;2022-08-03T03:09:09;8.90;;;4.93;;
3993;SDS011;2011;48.238;13.948;2022-08-03T03:11:37;9.20;;;5.37;;
3993;SDS011;2011;48.238;13.948;2022-08-03T03:14:06;13.20;;;4.93;;
3993;SDS011;2011;48.238;13.948;2022-08-03T03:16:34;10.23;;;6.40;;
3993;SDS011;2011;48.238;13.948;2022-08-03T03:19:01;10.63;;;5.90;;
3993;SDS011;2011;48.238;13.948;2022-08-03T03:21:31;9.73;;;5.23;;
3993;SDS011;2011;48.238;13.948;2022-08-03T03:23:59;10.80;;;4.13;;
3993;SDS011;2011;48.238;13.948;2022-08-03T03:26:27;6.63;;;4.73;;
3993;SDS011;2011;48.238;13.948;2022-08-03T03:28:54;16.63;;;6.07;;
3993;SDS011;2011;48.238;13.948;2022-08-03T03:31:22;13.30;;;5.07;;
3993;SDS011;2011;48.238;13.948;2022-08-03T03:33:49;13.83;;;5.10;;
3993;SDS011;2011;48.238;13.948;2022-08-03T03:36:16;9.90;;;5.60;;
3993;SDS011;2011;48.238;13.948;2022-08-03T03:38:45;13.93;;;5.20;;
3993;SDS011;2011;48.238;13.948;2022-08-03T03:41:12;10.93;;;5.47;;
3993;SDS011;2011;48.238;13.948;2022-08-03T03:43:39;8.73;;;5.33;;
3993;SDS011;2011;48.238;13.948;2022-08-03T03:46:07;12.33;;;6.20;;
3993;SDS011;2011;48.238;13.948;2022-08-03T03:48:34;14.30;;;5.87;;
3993;SDS011;2011;48.238;13.948;2022-08-03T03:51:01;7.43;;;5.50;;
3993;SDS011;2011;48.238;13.948;2022-08-03T03:53:28;13.63;;;6.03;;
3993;SDS011;2011;48.238;13.948;2022-08-03T03:55:57;8.70;;;5.90;;
3993;SDS011;2011;48.238;13.948;2022-08-03T03:58:24;12.93;;;6.40;;
3993;SDS011;2011;48.238;13.948;2022-08-03T04:00:51;12.43;;;5.40;;
3993;SDS011;2011;48.238;13.948;2022-08-03T04:03:18;13.90;;;5.93;;
3993;SDS011;2011;48.238;13.948;2022-08-03T04:05:45;12.17;;;5.93;;
3993;SDS011;2011;48.238;13.948;2022-08-03T04:08:29;10.67;;;5.87;;
3993;SDS011;2011;48.238;13.948;2022-08-03T04:11:25;10.50;;;5.50;;
3993;SDS011;2011;48.238;13.948;2022-08-03T04:13:54;8.00;;;5.47;;
3993;SDS011;2011;48.238;13.948;2022-08-03T04:16:33;12.40;;;5.93;;
3993;SDS011;2011;48.238;13.948;2022-08-03T04:19:04;14.17;;;5.87;;
3993;SDS011;2011;48.238;13.948;2022-08-03T04:21:34;8.90;;;5.50;;
3993;SDS011;2011;48.238;13.948;2022-08-03T04:24:07;12.43;;;5.17;;
3993;SDS011;2011;48.238;13.948;2022-08-03T04:26:38;13.37;;;6.73;;
3993;SDS011;2011;48.238;13.948;2022-08-03T04:29:07;10.07;;;5.80;;
3993;SDS011;2011;48.238;13.948;2022-08-03T04:31:37;19.33;;;6.27;;
3993;SDS011;2011;48.238;13.948;2022-08-03T04:34:05;11.40;;;5.73;;
3993;SDS011;2011;48.238;13.948;2022-08-03T04:36:35;15.80;;;5.57;;
3993;SDS011;2011;48.238;13.948;2022-08-03T04:39:05;7.80;;;5.37;;
3993;SDS011;2011;48.238;13.948;2022-08-03T04:41:40;8.53;;;4.80;;
3993;SDS011;2011;48.238;13.948;2022-08-03T04:44:08;9.33;;;4.90;;
3993;SDS011;2011;48.238;13.948;2022-08-03T04:46:38;8.00;;;4.40;;
3993;SDS011;2011;48.238;13.948;2022-08-03T04:49:06;14.60;;;5.20;;
3993;SDS011;2011;48.238;13.948;2022-08-03T04:51:33;10.30;;;4.40;;
3993;SDS011;2011;48.238;13.948;2022-08-03T04:54:04;9.40;;;4.73;;
3993;SDS011;2011;48.238;13.948;2022-08-03T04:56:32;9.37;;;4.90;;
3993;SDS011;2011;48.238;13.948;2022-08-03T04:59:01;14.13;;;4.37;;
3993;SDS011;2011;48.238;13.948;2022-08-03T05:01:28;7.70;;;4.27;;
3993;SDS011;2011;48.238;13.948;2022-08-03T05:03:55;10.90;;;5.10;;
3993;SDS011;2011;48.238;13.948;2022-08-03T05:06:22;11.27;;;4.93;;
3993;SDS011;2011;48.238;13.948;2022-08-03T05:08:49;9.00;;;4.67;;
3993;SDS011;2011;48.238;13.948;2022-08-03T05:11:16;8.40;;;4.43;;
3993;SDS011;2011;48.238;13.948;2022-08-03T05:13:44;12.50;;;5.00;;
3993;SDS011;2011;48.238;13.948;2022-08-03T05:16:13;7.90;;;5.13;;
3993;SDS011;2011;48.238;13.948;2022-08-03T05:18:40;9.13;;;4.93;;
3993;SDS011;2011;48.238;13.948;2022-08-03T05:21:07;10.60;;;4.93;;
3993;SDS011;2011;48.238;13.948;2022-08-03T05:23:36;12.80;;;4.77;;
3993;SDS011;2011;48.238;13.948;2022-08-03T05:26:03;21.00;;;4.87;;
3993;SDS011;2011;48.238;13.948;2022-08-03T05:28:30;10.70;;;5.40;;
3993;SDS011;2011;48.238;13.948;2022-08-03T05:30:57;12.93;;;5.70;;
3993;SDS011;2011;48.238;13.948;2022-08-03T05:33:26;9.60;;;5.23;;
3993;SDS011;2011;48.238;13.948;2022-08-03T05:35:53;10.30;;;5.17;;
3993;SDS011;2011;48.238;13.948;2022-08-03T05:38:20;11.30;;;5.70;;
3993;SDS011;2011;48.238;13.948;2022-08-03T05:40:47;13.00;;;6.83;;
3993;SDS011;2011;48.238;13.948;2022-08-03T05:43:14;15.63;;;6.07;;
3993;SDS011;2011;48.238;13.948;2022-08-03T05:45:42;11.10;;;6.30;;
3993;SDS011;2011;48.238;13.948;2022-08-03T05:48:09;8.30;;;5.77;;
3993;SDS011;2011;48.238;13.948;2022-08-03T05:50:37;8.03;;;6.00;;
3993;SDS011;2011;48.238;13.948;2022-08-03T05:53:04;11.40;;;5.70;;
3993;SDS011;2011;48.238;13.948;2022-08-03T05:55:31;10.43;;;6.60;;
3993;SDS011;2011;48.238;13.948;2022-08-03T05:57:58;10.20;;;6.80;;
3993;SDS011;2011;48.238;13.948;2022-08-03T06:00:27;16.33;;;6.50;;
3993;SDS011;2011;48.238;13.948;2022-08-03T06:02:54;10.90;;;6.07;;
3993;SDS011;2011;48.238;13.948;2022-08-03T06:05:21;12.80;;;6.70;;
3993;SDS011;2011;48.238;13.948;2022-08-03T06:07:52;11.70;;;5.60;;
3993;SDS011;2011;48.238;13.948;2022-08-03T06:10:19;12.53;;;6.13;;
3993;SDS011;2011;48.238;13.948;2022-08-03T06:12:47;13.80;;;6.37;;
3993;SDS011;2011;48.238;13.948;2022-08-03T06:15:15;13.73;;;6.90;;
3993;SDS011;2011;48.238;13.948;2022-08-03T06:17:46;11.30;;;6.30;;
3993;SDS011;2011;48.238;13.948;2022-08-03T06:20:15;10.90;;;6.40;;
3993;SDS011;2011;48.238;13.948;2022-08-03T06:22:42;14.30;;;6.30;;
3993;SDS011;2011;48.238;13.948;2022-08-03T06:25:11;15.23;;;6.37;;
3993;SDS011;2011;48.238;13.948;2022-08-03T06:27:38;12.87;;;6.43;;
3993;SDS011;2011;48.238;13.948;2022-08-03T06:30:06;11.23;;;6.67;;
3993;SDS011;2011;48.238;13.948;2022-08-03T06:32:35;13.43;;;6.37;;
3993;SDS011;2011;48.238;13.948;2022-08-03T06:35:02;12.23;;;6.77;;
3993;SDS011;2011;48.238;13.948;2022-08-03T06:37:30;13.23;;;6.70;;
3993;SDS011;2011;48.238;13.948;2022-08-03T06:39:57;12.13;;;6.07;;
3993;SDS011;2011;48.238;13.948;2022-08-03T06:42:25;12.57;;;6.60;;
3993;SDS011;2011;48.238;13.948;2022-08-03T06:44:52;8.27;;;5.77;;
3993;SDS011;2011;48.238;13.948;2022-08-03T06:47:19;17.10;;;6.13;;
3993;SDS011;2011;48.238;13.948;2022-08-03T06:49:46;8.07;;;5.10;;
3993;SDS011;2011;48.238;13.948;2022-08-03T06:52:13;11.90;;;5.90;;
3993;SDS011;2011;48.238;13.948;2022-08-03T06:54:40;9.37;;;6.27;;
3993;SDS011;2011;48.238;13.948;2022-08-03T06:57:07;9.27;;;5.27;;
3993;SDS011;2011;48.238;13.948;2022-08-03T06:59:37;10.73;;;5.80;;
3993;SDS011;2011;48.238;13.948;2022-08-03T07:02:04;7.70;;;5.20;;
3993;SDS011;2011;48.238;13.948;2022-08-03T07:04:31;15.13;;;5.40;;
3993;SDS011;2011;48.238;13.948;2022-08-03T07:06:58;15.13;;;5.43;;
3993;SDS011;2011;48.238;13.948;2022-08-03T07:09:25;10.80;;;5.03;;
3993;SDS011;2011;48.238;13.948;2022-08-03T07:11:52;11.10;;;5.37;;
3993;SDS011;2011;48.238;13.948;2022-08-03T07:14:21;7.23;;;4.93;;
3993;SDS011;2011;48.238;13.948;2022-08-03T07:16:49;8.00;;;5.50;;
3993;SDS011;2011;48.238;13.948;2022-08-03T07:19:16;10.70;;;5.53;;
3993;SDS011;2011;48.238;13.948;2022-08-03T07:21:44;14.30;;;5.70;;
3993;SDS011;2011;48.238;13.948;2022-08-03T07:24:11;8.23;;;4.10;;
3993;SDS011;2011;48.238;13.948;2022-08-03T07:26:38;12.60;;;5.00;;
3993;SDS011;2011;48.238;13.948;2022-08-03T07:29:05;8.40;;;5.00;;
3993;SDS011;2011;48.238;13.948;2022-08-03T07:31:32;10.17;;;4.87;;
3993;SDS011;2011;48.238;13.948;2022-08-03T07:34:01;8.37;;;4.20;;
3993;SDS011;2011;48.238;13.948;2022-08-03T07:36:28;12.47;;;5.40;;
3993;SDS011;2011;48.238;13.948;2022-08-03T07:38:56;7.60;;;4.53;;
3993;SDS011;2011;48.238;13.948;2022-08-03T07:41:23;7.37;;;4.13;;
3993;SDS011;2011;48.238;13.948;2022-08-03T07:43:50;9.23;;;4.70;;
3993;SDS011;2011;48.238;13.948;2022-08-03T07:46:17;12.40;;;4.37;;
3993;SDS011;2011;48.238;13.948;2022-08-03T07:48:44;19.87;;;5.00;;
3993;SDS011;2011;48.238;13.948;2022-08-03T07:51:13;8.63;;;4.40;;
3993;SDS011;2011;48.238;13.948;2022-08-03T07:53:40;10.30;;;4.33;;
3993;SDS011;2011;48.238;13.948;2022-08-03T07:56:07;9.17;;;4.20;;
3993;SDS011;2011;48.238;13.948;2022-08-03T07:58:34;7.17;;;3.80;;
3993;SDS011;2011;48.238;13.948;2022-08-03T08:01:01;7.80;;;4.37;;
3993;SDS011;2011;48.238;13.948;2022-08-03T08:03:28;7.17;;;4.30;;
3993;SDS011;2011;48.238;13.948;2022-08-03T08:05:55;9.30;;;3.83;;
3993;SDS011;2011;48.238;13.948;2022-08-03T08:08:24;10.93;;;4.00;;
3993;SDS011;2011;48.238;13.948;2022-08-03T08:10:51;11.90;;;4.00;;
3993;SDS011;2011;48.238;13.948;2022-08-03T08:13:18;21.83;;;3.80;;
3993;SDS011;2011;48.238;13.948;2022-08-03T08:15:45;27.43;;;4.40;;
3993;SDS011;2011;48.238;13.948;2022-08-03T08:18:12;18.50;;;4.00;;
3993;SDS011;2011;48.238;13.948;2022-08-03T08:20:39;9.47;;;4.50;;
3993;SDS011;2011;48.238;13.948;2022-08-03T08:23:07;6.97;;;3.70;;
3993;SDS011;2011;48.238;13.948;2022-08-03T08:25:35;15.33;;;3.90;;
3993;SDS011;2011;48.238;13.948;2022-08-03T08:28:02;12.23;;;3.90;;
3993;SDS011;2011;48.238;13.948;2022-08-03T08:30:30;7.20;;;3.80;;
3993;SDS011;2011;48.238;13.948;2022-08-03T08:32:58;10.50;;;4.23;;
3993;SDS011;2011;48.238;13.948;2022-08-03T08:35:25;7.27;;;3.60;;
3993;SDS011;2011;48.238;13.948;2022-08-03T08:37:52;9.17;;;3.13;;
3993;SDS011;2011;48.238;13.948;2022-08-03T08:40:20;5.90;;;3.47;;
3993;SDS011;2011;48.238;13.948;2022-08-03T08:42:49;7.57;;;3.70;;
3993;SDS011;2011;48.238;13.948;2022-08-03T08:45:17;5.23;;;3.43;;
3993;SDS011;2011;48.238;13.948;2022-08-03T08:47:45;9.53;;;4.10;;
3993;SDS011;2011;48.238;13.948;2022-08-03T08:50:16;6.90;;;3.57;;
3993;SDS011;2011;48.238;13.948;2022-08-03T08:52:45;5.73;;;3.50;;
3993;SDS011;2011;48.238;13.948;2022-08-03T08:55:14;6.60;;;3.03;;
3993;SDS011;2011;48.238;13.948;2022-08-03T08:57:46;5.33;;;3.27;;
3993;SDS011;2011;48.238;13.948;2022-08-03T09:00:16;4.27;;;2.90;;
3993;SDS011;2011;48.238;13.948;2022-08-03T09:02:44;5.80;;;3.20;;
3993;SDS011;2011;48.238;13.948;2022-08-03T09:05:11;6.00;;;3.00;;
3993;SDS011;2011;48.238;13.948;2022-08-03T09:07:39;7.50;;;3.43;;
3993;SDS011;2011;48.238;13.948;2022-08-03T09:10:07;4.70;;;2.97;;
3993;SDS011;2011;48.238;13.948;2022-08-03T09:12:36;5.43;;;3.17;;
3993;SDS011;2011;48.238;13.948;2022-08-03T09:17:51;7.40;;;2.90;;
3993;SDS011;2011;48.238;13.948;2022-08-03T09:20:21;6.47;;;3.37;;
3993;SDS011;2011;48.238;13.948;2022-08-03T09:22:53;5.90;;;3.07;;
3993;SDS011;2011;48.238;13.948;2022-08-03T09:25:28;5.13;;;3.00;;
3993;SDS011;2011;48.238;13.948;2022-08-03T09:28:06;7.57;;;3.40;;
3993;SDS011;2011;48.238;13.948;2022-08-03T09:30:37;5.37;;;3.00;;
3993;SDS011;2011;48.238;13.948;2022-08-03T09:33:06;4.73;;;2.57;;
3993;SDS011;2011;48.238;13.948;2022-08-03T09:35:39;8.53;;;2.90;;
3993;SDS011;2011;48.238;13.948;2022-08-03T09:38:10;7.03;;;2.80;;
3993;SDS011;2011;48.238;13.948;2022-08-03T09:40:38;8.83;;;2.93;;
3993;SDS011;2011;48.238;13.948;2022-08-03T09:43:06;8.90;;;3.10;;
3993;SDS011;2011;48.238;13.948;2022-08-03T09:45:33;6.13;;;3.07;;
3993;SDS011;2011;48.238;13.948;2022-08-03T09:48:21;5.90;;;2.80;;
3993;SDS011;2011;48.238;13.948;2022-08-03T09:50:49;5.17;;;2.90;;
3993;SDS011;2011;48.238;13.948;2022-08-03T09:53:17;3.73;;;2.13;;
3993;SDS011;2011;48.238;13.948;2022-08-03T09:55:51;7.17;;;2.50;;
3993;SDS011;2011;48.238;13.948;2022-08-03T09:58:19;9.73;;;2.83;;
3993;SDS011;2011;48.238;13.948;2022-08-03T10:00:51;6.43;;;3.00;;
3993;SDS011;2011;48.238;13.948;2022-08-03T10:03:21;4.83;;;2.67;;
3993;SDS011;2011;48.238;13.948;2022-08-03T10:05:49;4.90;;;2.70;;
3993;SDS011;2011;48.238;13.948;2022-08-03T10:08:16;5.07;;;2.60;;
3993;SDS011;2011;48.238;13.948;2022-08-03T10:10:45;7.27;;;2.20;;
3993;SDS011;2011;48.238;13.948;2022-08-03T10:13:14;5.77;;;2.83;;
3993;SDS011;2011;48.238;13.948;2022-08-03T10:15:42;5.00;;;2.40;;
3993;SDS011;2011;48.238;13.948;2022-08-03T10:18:09;5.17;;;2.30;;
3993;SDS011;2011;48.238;13.948;2022-08-03T10:20:39;6.00;;;2.40;;
3993;SDS011;2011;48.238;13.948;2022-08-03T10:23:10;8.23;;;2.47;;
3993;SDS011;2011;48.238;13.948;2022-08-03T10:25:39;3.73;;;2.00;;
3993;SDS011;2011;48.238;13.948;2022-08-03T10:28:09;4.50;;;2.07;;
3993;SDS011;2011;48.238;13.948;2022-08-03T10:30:40;7.90;;;2.20;;
3993;SDS011;2011;48.238;13.948;2022-08-03T10:33:14;6.20;;;2.00;;
3993;SDS011;2011;48.238;13.948;2022-08-03T10:35:45;4.60;;;2.23;;
3993;SDS011;2011;48.238;13.948;2022-08-03T10:38:16;3.73;;;2.10;;
3993;SDS011;2011;48.238;13.948;2022-08-03T10:40:45;3.93;;;1.90;;
3993;SDS011;2011;48.238;13.948;2022-08-03T10:43:17;5.23;;;1.83;;
3993;SDS011;2011;48.238;13.948;2022-08-03T10:45:47;3.93;;;1.87;;
3993;SDS011;2011;48.238;13.948;2022-08-03T10:48:14;4.40;;;1.97;;
3993;SDS011;2011;48.238;13.948;2022-08-03T10:50:42;6.27;;;2.10;;
3993;SDS011;2011;48.238;13.948;2022-08-03T10:53:10;5.97;;;2.10;;
3993;SDS011;2011;48.238;13.948;2022-08-03T10:55:38;4.03;;;1.80;;
3993;SDS011;2011;48.238;13.948;2022-08-03T11:01:14;12.37;;;2.17;;
3993;SDS011;2011;48.238;13.948;2022-08-03T11:06:41;4.57;;;1.50;;
3993;SDS011;2011;48.238;13.948;2022-08-03T11:09:17;5.00;;;2.10;;
3993;SDS011;2011;48.238;13.948;2022-08-03T11:11:45;6.63;;;1.90;;
3993;SDS011;2011;48.238;13.948;2022-08-03T11:14:14;5.60;;;1.97;;
3993;SDS011;2011;48.238;13.948;2022-08-03T11:16:44;5.20;;;1.90;;
3993;SDS011;2011;48.238;13.948;2022-08-03T11:19:14;2.87;;;1.50;;
3993;SDS011;2011;48.238;13.948;2022-08-03T11:21:56;7.33;;;2.23;;
3993;SDS011;2011;48.238;13.948;2022-08-03T11:27:24;6.20;;;1.90;;
3993;SDS011;2011;48.238;13.948;2022-08-03T11:29:53;3.80;;;1.80;;
3993;SDS011;2011;48.238;13.948;2022-08-03T11:35:26;5.07;;;1.80;;
3993;SDS011;2011;48.238;13.948;2022-08-03T11:38:07;3.20;;;1.67;;
3993;SDS011;2011;48.238;13.948;2022-08-03T11:40:39;8.67;;;1.97;;
3993;SDS011;2011;48.238;13.948;2022-08-03T11:43:09;3.00;;;1.57;;
3993;SDS011;2011;48.238;13.948;2022-08-03T11:45:59;4.23;;;1.60;;
3993;SDS011;2011;48.238;13.948;2022-08-03T11:48:32;5.40;;;1.77;;
3993;SDS011;2011;48.238;13.948;2022-08-03T11:51:01;3.60;;;1.60;;
3993;SDS011;2011;48.238;13.948;2022-08-03T11:53:29;3.40;;;1.43;;
3993;SDS011;2011;48.238;13.948;2022-08-03T11:55:59;6.27;;;1.60;;
3993;SDS011;2011;48.238;13.948;2022-08-03T11:58:28;3.37;;;1.60;;
3993;SDS011;2011;48.238;13.948;2022-08-03T12:01:02;4.07;;;1.73;;
3993;SDS011;2011;48.238;13.948;2022-08-03T12:03:31;4.40;;;1.53;;
3993;SDS011;2011;48.238;13.948;2022-08-03T12:05:58;3.00;;;1.43;;
3993;SDS011;2011;48.238;13.948;2022-08-03T12:08:30;4.27;;;1.70;;
3993;SDS011;2011;48.238;13.948;2022-08-03T12:11:00;5.80;;;1.83;;
3993;SDS011;2011;48.238;13.948;2022-08-03T12:13:37;3.23;;;1.50;;
3993;SDS011;2011;48.238;13.948;2022-08-03T12:16:05;6.13;;;2.17;;
3993;SDS011;2011;48.238;13.948;2022-08-03T12:18:33;5.93;;;1.50;;
3993;SDS011;2011;48.238;13.948;2022-08-03T12:21:05;5.30;;;1.33;;
3993;SDS011;2011;48.238;13.948;2022-08-03T12:23:33;3.47;;;1.63;;
3993;SDS011;2011;48.238;13.948;2022-08-03T12:26:02;6.20;;;1.40;;
3993;SDS011;2011;48.238;13.948;2022-08-03T12:28:31;4.50;;;1.50;;
3993;SDS011;2011;48.238;13.948;2022-08-03T12:31:00;3.57;;;1.50;;
3993;SDS011;2011;48.238;13.948;2022-08-03T12:33:30;5.50;;;1.37;;
3993;SDS011;2011;48.238;13.948;2022-08-03T12:36:02;4.33;;;1.30;;
3993;SDS011;2011;48.238;13.948;2022-08-03T12:38:31;3.67;;;1.37;;
3993;SDS011;2011;48.238;13.948;2022-08-03T12:41:00;4.20;;;1.33;;
3993;SDS011;2011;48.238;13.948;2022-08-03T12:43:32;3.27;;;1.50;;
3993;SDS011;2011;48.238;13.948;2022-08-03T12:46:10;2.90;;;1.40;;
3993;SDS011;2011;48.238;13.948;2022-08-03T12:48:57;4.57;;;1.20;;
3993;SDS011;2011;48.238;13.948;2022-08-03T12:51:25;2.63;;;1.20;;
3993;SDS011;2011;48.238;13.948;2022-08-03T12:53:52;3.30;;;1.40;;
3993;SDS011;2011;48.238;13.948;2022-08-03T12:56:22;3.90;;;1.40;;
3993;SDS011;2011;48.238;13.948;2022-08-03T12:58:49;2.87;;;1.40;;
3993;SDS011;2011;48.238;13.948;2022-08-03T13:01:17;4.80;;;1.50;;
3993;SDS011;2011;48.238;13.948;2022-08-03T13:03:47;2.80;;;1.27;;
3993;SDS011;2011;48.238;13.948;2022-08-03T13:06:16;3.20;;;1.43;;
3993;SDS011;2011;48.238;13.948;2022-08-03T13:08:45;3.83;;;1.43;;
3993;SDS011;2011;48.238;13.948;2022-08-03T13:11:16;5.23;;;1.40;;
3993;SDS011;2011;48.238;13.948;2022-08-03T13:13:46;4.03;;;1.60;;
3993;SDS011;2011;48.238;13.948;2022-08-03T13:16:13;3.03;;;1.27;;
3993;SDS011;2011;48.238;13.948;2022-08-03T13:18:41;3.57;;;1.30;;
3993;SDS011;2011;48.238;13.948;2022-08-03T13:21:11;2.67;;;1.33;;
3993;SDS011;2011;48.238;13.948;2022-08-03T13:23:39;2.50;;;1.30;;
3993;SDS011;2011;48.238;13.948;2022-08-03T13:26:07;2.90;;;1.23;;
3993;SDS011;2011;48.238;13.948;2022-08-03T13:28:34;5.70;;;1.20;;
3993;SDS011;2011;48.238;13.948;2022-08-03T13:31:03;4.67;;;1.67;;
3993;SDS011;2011;48.238;13.948;2022-08-03T13:33:30;5.60;;;1.30;;
3993;SDS011;2011;48.238;13.948;2022-08-03T13:35:57;2.90;;;1.37;;
3993;SDS011;2011;48.238;13.948;2022-08-03T13:38:24;2.37;;;1.10;;
3993;SDS011;2011;48.238;13.948;2022-08-03T13:40:52;2.40;;;1.13;;
3993;SDS011;2011;48.238;13.948;2022-08-03T13:43:19;3.00;;;1.50;;
3993;SDS011;2011;48.238;13.948;2022-08-03T13:45:46;3.30;;;1.50;;
3993;SDS011;2011;48.238;13.948;2022-08-03T13:48:15;4.80;;;1.53;;
3993;SDS011;2011;48.238;13.948;2022-08-03T13:50:42;2.80;;;1.40;;
3993;SDS011;2011;48.238;13.948;2022-08-03T13:53:09;3.73;;;1.10;;
3993;SDS011;2011;48.238;13.948;2022-08-03T13:55:36;4.00;;;1.43;;
3993;SDS011;2011;48.238;13.948;2022-08-03T13:58:03;4.10;;;1.20;;
3993;SDS011;2011;48.238;13.948;2022-08-03T14:00:32;2.90;;;1.30;;
3993;SDS011;2011;48.238;13.948;2022-08-03T14:02:59;6.00;;;1.33;;
3993;SDS011;2011;48.238;13.948;2022-08-03T14:05:29;3.43;;;1.30;;
3993;SDS011;2011;48.238;13.948;2022-08-03T14:07:56;9.50;;;1.73;;
3993;SDS011;2011;48.238;13.948;2022-08-03T14:10:25;2.30;;;1.00;;
3993;SDS011;2011;48.238;13.948;2022-08-03T14:12:52;3.80;;;1.23;;
3993;SDS011;2011;48.238;13.948;2022-08-03T14:15:20;3.37;;;1.30;;
3993;SDS011;2011;48.238;13.948;2022-08-03T14:17:47;8.80;;;1.57;;
3993;SDS011;2011;48.238;13.948;2022-08-03T14:20:14;4.43;;;1.33;;
3993;SDS011;2011;48.238;13.948;2022-08-03T14:22:43;5.93;;;1.27;;
3993;SDS011;2011;48.238;13.948;2022-08-03T14:25:10;2.60;;;1.00;;
3993;SDS011;2011;48.238;13.948;2022-08-03T14:27:37;5.03;;;1.57;;
3993;SDS011;2011;48.238;13.948;2022-08-03T14:30:04;2.30;;;1.00;;
3993;SDS011;2011;48.238;13.948;2022-08-03T14:32:32;3.20;;;1.47;;
3993;SDS011;2011;48.238;13.948;2022-08-03T14:34:59;7.00;;;1.77;;
3993;SDS011;2011;48.238;13.948;2022-08-03T14:37:26;5.40;;;1.60;;
3993;SDS011;2011;48.238;13.948;2022-08-03T14:39:55;6.00;;;1.30;;
3993;SDS011;2011;48.238;13.948;2022-08-03T14:42:22;3.60;;;1.20;;
3993;SDS011;2011;48.238;13.948;2022-08-03T14:44:49;4.23;;;1.30;;
3993;SDS011;2011;48.238;13.948;2022-08-03T14:47:16;2.73;;;1.10;;
3993;SDS011;2011;48.238;13.948;2022-08-03T14:49:43;2.57;;;1.17;;
3993;SDS011;2011;48.238;13.948;2022-08-03T14:52:10;2.50;;;1.00;;
3993;SDS011;2011;48.238;13.948;2022-08-03T14:54:37;3.17;;;1.27;;
3993;SDS011;2011;48.238;13.948;2022-08-03T14:57:05;4.77;;;1.50;;
3993;SDS011;2011;48.238;13.948;2022-08-03T14:59:32;2.90;;;1.17;;
3993;SDS011;2011;48.238;13.948;2022-08-03T15:01:59;2.40;;;1.00;;
3993;SDS011;2011;48.238;13.948;2022-08-03T15:04:27;2.53;;;0.93;;
3993;SDS011;2011;48.238;13.948;2022-08-03T15:06:54;5.50;;;1.30;;
3993;SDS011;2011;48.238;13.948;2022-08-03T15:09:21;4.87;;;1.17;;
3993;SDS011;2011;48.238;13.948;2022-08-03T15:11:48;3.73;;;1.27;;
3993;SDS011;2011;48.238;13.948;2022-08-03T15:14:16;4.23;;;1.27;;
3993;SDS011;2011;48.238;13.948;2022-08-03T15:16:43;3.67;;;1.20;;
3993;SDS011;2011;48.238;13.948;2022-08-03T15:19:10;12.97;;;1.80;;
3993;SDS011;2011;48.238;13.948;2022-08-03T15:21:37;4.50;;;1.20;;
3993;SDS011;2011;48.238;13.948;2022-08-03T15:24:04;4.60;;;1.10;;